sensor_id;sensor_type;location;lat;lon;timestamp;pressure;altitude;pressure_sealevel;temperature
37452;BMP280;23314;51.114;6.900;2023-03-24T00:00:37;99872.53;;;14.28
37452;BMP280;23314;51.114;6.900;2023-03-24T00:03:03;99868.38;;;14.27
37452;BMP280;23314;51.114;6.900;2023-03-24T00:05:28;99867.91;;;14.29
37452;BMP280;23314;51.114;6.900;2023-03-24T00:07:55;99869.41;;;14.30
37452;BMP280;23314;51.114;6.900;2023-03-24T00:10:21;99860.59;;;14.29
37452;BMP280;23314;51.114;6.900;2023-03-24T00:12:47;99851.34;;;14.30
37452;BMP280;23314;51.114;6.900;2023-03-24T00:15:17;99856.56;;;14.34
37452;BMP280;23314;51.114;6.900;2023-03-24T00:17:47;99854.94;;;14.36
37452;BMP280;23314;51.114;6.900;2023-03-24T00:20:15;99849.56;;;14.36
37452;BMP280;23314;51.114;6.900;2023-03-24T00:22:45;99841.81;;;14.39
37452;BMP280;23314;51.114;6.900;2023-03-24T00:25:13;99842.81;;;14.41
37452;BMP280;23314;51.114;6.900;2023-03-24T00:27:38;99834.31;;;14.43
37452;BMP280;23314;51.114;6.900;2023-03-24T00:30:06;99817.78;;;14.44
37452;BMP280;23314;51.114;6.900;2023-03-24T00:32:33;99823.91;;;14.45
37452;BMP280;23314;51.114;6.900;2023-03-24T00:35:02;99816.16;;;14.47
37452;BMP280;23314;51.114;6.900;2023-03-24T00:37:27;99816.41;;;14.49
37452;BMP280;23314;51.114;6.900;2023-03-24T00:39:53;99810.63;;;14.50
37452;BMP280;23314;51.114;6.900;2023-03-24T00:42:18;99818.50;;;14.54
37452;BMP280;23314;51.114;6.900;2023-03-24T00:44:43;99803.00;;;14.58
37452;BMP280;23314;51.114;6.900;2023-03-24T00:47:09;99799.84;;;14.60
37452;BMP280;23314;51.114;6.900;2023-03-24T00:49:35;99801.31;;;14.61
37452;BMP280;23314;51.114;6.900;2023-03-24T00:52:16;99789.41;;;14.62
37452;BMP280;23314;51.114;6.900;2023-03-24T00:54:44;99790.88;;;14.63
37452;BMP280;23314;51.114;6.900;2023-03-24T00:57:11;99792.84;;;14.62
37452;BMP280;23314;51.114;6.900;2023-03-24T00:59:46;99789.41;;;14.62
37452;BMP280;23314;51.114;6.900;2023-03-24T01:02:15;99780.34;;;14.59
37452;BMP280;23314;51.114;6.900;2023-03-24T01:04:43;99774.66;;;14.57
37452;BMP280;23314;51.114;6.900;2023-03-24T01:07:12;99771.22;;;14.57
37452;BMP280;23314;51.114;6.900;2023-03-24T01:09:42;99776.16;;;14.58
37452;BMP280;23314;51.114;6.900;2023-03-24T01:12:07;99770.03;;;14.58
37452;BMP280;23314;51.114;6.900;2023-03-24T01:14:33;99778.09;;;14.58
37452;BMP280;23314;51.114;6.900;2023-03-24T01:16:58;99768.13;;;14.58
37452;BMP280;23314;51.114;6.900;2023-03-24T01:19:25;99772.72;;;14.58
37452;BMP280;23314;51.114;6.900;2023-03-24T01:21:50;99768.84;;;14.59
37452;BMP280;23314;51.114;6.900;2023-03-24T01:24:19;99769.59;;;14.59
37452;BMP280;23314;51.114;6.900;2023-03-24T01:26:44;99767.63;;;14.60
37452;BMP280;23314;51.114;6.900;2023-03-24T01:29:10;99769.88;;;14.61
37452;BMP280;23314;51.114;6.900;2023-03-24T01:31:35;99766.44;;;14.61
37452;BMP280;23314;51.114;6.900;2023-03-24T01:34:01;99765.25;;;14.62
37452;BMP280;23314;51.114;6.900;2023-03-24T01:36:26;99753.31;;;14.63
37452;BMP280;23314;51.114;6.900;2023-03-24T01:38:52;99746.75;;;14.64
37452;BMP280;23314;51.114;6.900;2023-03-24T01:41:17;99741.38;;;14.64
37452;BMP280;23314;51.114;6.900;2023-03-24T01:43:43;99735.09;;;14.67
37452;BMP280;23314;51.114;6.900;2023-03-24T01:46:19;99725.84;;;14.68
37452;BMP280;23314;51.114;6.900;2023-03-24T01:48:50;99722.72;;;14.69
37452;BMP280;23314;51.114;6.900;2023-03-24T01:54:00;99716.16;;;14.70
37452;BMP280;23314;51.114;6.900;2023-03-24T01:56:29;99712.25;;;14.72
37452;BMP280;23314;51.114;6.900;2023-03-24T01:58:58;99704.19;;;14.72
37452;BMP280;23314;51.114;6.900;2023-03-24T02:01:24;99696.91;;;14.72
37452;BMP280;23314;51.114;6.900;2023-03-24T02:03:54;99695.69;;;14.73
37452;BMP280;23314;51.114;6.900;2023-03-24T02:06:21;99693.03;;;14.73
37452;BMP280;23314;51.114;6.900;2023-03-24T02:08:51;99676.16;;;14.73
37452;BMP280;23314;51.114;6.900;2023-03-24T02:11:18;99672.75;;;14.72
37452;BMP280;23314;51.114;6.900;2023-03-24T02:13:44;99662.72;;;14.73
37452;BMP280;23314;51.114;6.900;2023-03-24T02:26:58;99627.94;;;14.78
37452;BMP280;23314;51.114;6.900;2023-03-24T02:38:21;99625.38;;;14.84
37452;BMP280;23314;51.114;6.900;2023-03-24T02:41:22;99623.28;;;14.88
37452;BMP280;23314;51.114;6.900;2023-03-24T02:49:39;99627.81;;;14.97
37452;BMP280;23314;51.114;6.900;2023-03-24T02:52:15;99625.41;;;14.99
37452;BMP280;23314;51.114;6.900;2023-03-24T02:57:39;99627.44;;;15.04
37452;BMP280;23314;51.114;6.900;2023-03-24T03:02:44;99614.41;;;15.12
37452;BMP280;23314;51.114;6.900;2023-03-24T03:05:17;99626.88;;;15.15
37452;BMP280;23314;51.114;6.900;2023-03-24T03:07:45;99615.72;;;15.16
37452;BMP280;23314;51.114;6.900;2023-03-24T03:10:17;99623.56;;;15.20
37452;BMP280;23314;51.114;6.900;2023-03-24T03:12:47;99626.53;;;15.22
37452;BMP280;23314;51.114;6.900;2023-03-24T03:15:27;99624.91;;;15.25
37452;BMP280;23314;51.114;6.900;2023-03-24T03:18:00;99617.06;;;15.27
37452;BMP280;23314;51.114;6.900;2023-03-24T03:20:35;99622.28;;;15.30
37452;BMP280;23314;51.114;6.900;2023-03-24T03:23:07;99613.09;;;15.37
37452;BMP280;23314;51.114;6.900;2023-03-24T03:25:37;99615.16;;;15.42
37452;BMP280;23314;51.114;6.900;2023-03-24T03:28:07;99607.38;;;15.44
37452;BMP280;23314;51.114;6.900;2023-03-24T03:30:38;99614.78;;;15.49
37452;BMP280;23314;51.114;6.900;2023-03-24T03:33:13;99614.09;;;15.54
37452;BMP280;23314;51.114;6.900;2023-03-24T03:35:47;99607.63;;;15.61
37452;BMP280;23314;51.114;6.900;2023-03-24T03:38:34;99607.16;;;15.63
37452;BMP280;23314;51.114;6.900;2023-03-24T03:41:03;99609.38;;;15.64
37452;BMP280;23314;51.114;6.900;2023-03-24T03:43:30;99609.19;;;15.68
37452;BMP280;23314;51.114;6.900;2023-03-24T03:45:56;99600.66;;;15.69
37452;BMP280;23314;51.114;6.900;2023-03-24T03:48:22;99615.09;;;15.72
37452;BMP280;23314;51.114;6.900;2023-03-24T03:50:51;99605.38;;;15.75
37452;BMP280;23314;51.114;6.900;2023-03-24T03:53:18;99599.22;;;15.74
37452;BMP280;23314;51.114;6.900;2023-03-24T03:55:45;99610.28;;;15.76
37452;BMP280;23314;51.114;6.900;2023-03-24T03:58:11;99617.09;;;15.77
37452;BMP280;23314;51.114;6.900;2023-03-24T04:00:40;99614.72;;;15.79
37452;BMP280;23314;51.114;6.900;2023-03-24T04:09:40;99627.88;;;15.77
37452;BMP280;23314;51.114;6.900;2023-03-24T04:12:23;99630.28;;;15.75
37452;BMP280;23314;51.114;6.900;2023-03-24T04:18:05;99625.19;;;15.77
37452;BMP280;23314;51.114;6.900;2023-03-24T04:23:27;99626.94;;;15.80
37452;BMP280;23314;51.114;6.900;2023-03-24T04:26:17;99638.25;;;15.84
37452;BMP280;23314;51.114;6.900;2023-03-24T04:29:05;99633.88;;;15.87
37452;BMP280;23314;51.114;6.900;2023-03-24T04:34:16;99656.72;;;15.92
37452;BMP280;23314;51.114;6.900;2023-03-24T04:36:50;99651.78;;;15.90
37452;BMP280;23314;51.114;6.900;2023-03-24T04:39:21;99663.94;;;15.85
37452;BMP280;23314;51.114;6.900;2023-03-24T04:41:53;99675.56;;;15.77
37452;BMP280;23314;51.114;6.900;2023-03-24T04:44:20;99673.03;;;15.73
37452;BMP280;23314;51.114;6.900;2023-03-24T04:46:49;99695.84;;;15.63
37452;BMP280;23314;51.114;6.900;2023-03-24T04:49:15;99701.16;;;15.57
37452;BMP280;23314;51.114;6.900;2023-03-24T04:51:42;99698.09;;;15.49
37452;BMP280;23314;51.114;6.900;2023-03-24T04:54:08;99692.03;;;15.40
37452;BMP280;23314;51.114;6.900;2023-03-24T04:56:42;99707.34;;;15.33
37452;BMP280;23314;51.114;6.900;2023-03-24T04:59:11;99718.63;;;15.23
37452;BMP280;23314;51.114;6.900;2023-03-24T05:01:40;99722.50;;;15.22
37452;BMP280;23314;51.114;6.900;2023-03-24T05:04:05;99731.63;;;15.15
37452;BMP280;23314;51.114;6.900;2023-03-24T05:06:31;99735.72;;;15.10
37452;BMP280;23314;51.114;6.900;2023-03-24T05:08:57;99741.28;;;15.07
37452;BMP280;23314;51.114;6.900;2023-03-24T05:11:26;99744.88;;;15.03
37452;BMP280;23314;51.114;6.900;2023-03-24T05:13:53;99758.19;;;14.98
37452;BMP280;23314;51.114;6.900;2023-03-24T05:16:19;99741.50;;;14.94
37452;BMP280;23314;51.114;6.900;2023-03-24T05:18:44;99754.34;;;14.90
37452;BMP280;23314;51.114;6.900;2023-03-24T05:21:11;99753.50;;;14.83
37452;BMP280;23314;51.114;6.900;2023-03-24T05:23:37;99758.47;;;14.76
37452;BMP280;23314;51.114;6.900;2023-03-24T05:26:03;99762.13;;;14.63
37452;BMP280;23314;51.114;6.900;2023-03-24T05:28:29;99778.53;;;14.56
37452;BMP280;23314;51.114;6.900;2023-03-24T05:30:54;99791.09;;;14.50
37452;BMP280;23314;51.114;6.900;2023-03-24T05:33:20;99803.78;;;14.49
37452;BMP280;23314;51.114;6.900;2023-03-24T05:35:46;99808.38;;;14.49
37452;BMP280;23314;51.114;6.900;2023-03-24T05:38:11;99827.91;;;14.49
37452;BMP280;23314;51.114;6.900;2023-03-24T05:40:37;99842.25;;;14.46
37452;BMP280;23314;51.114;6.900;2023-03-24T05:43:05;99841.63;;;14.42
37452;BMP280;23314;51.114;6.900;2023-03-24T05:45:33;99845.09;;;14.33
37452;BMP280;23314;51.114;6.900;2023-03-24T05:50:40;99853.47;;;13.98
37452;BMP280;23314;51.114;6.900;2023-03-24T05:53:05;99865.53;;;13.84
37452;BMP280;23314;51.114;6.900;2023-03-24T05:55:31;99858.13;;;13.70
37452;BMP280;23314;51.114;6.900;2023-03-24T05:57:57;99873.41;;;13.51
37452;BMP280;23314;51.114;6.900;2023-03-24T06:00:22;99864.91;;;13.34
37452;BMP280;23314;51.114;6.900;2023-03-24T06:02:47;99878.69;;;13.23
37452;BMP280;23314;51.114;6.900;2023-03-24T06:05:13;99873.44;;;13.10
37452;BMP280;23314;51.114;6.900;2023-03-24T06:07:39;99884.53;;;12.99
37452;BMP280;23314;51.114;6.900;2023-03-24T06:10:07;99887.50;;;12.92
37452;BMP280;23314;51.114;6.900;2023-03-24T06:12:37;99899.34;;;12.82
37452;BMP280;23314;51.114;6.900;2023-03-24T06:15:04;99909.25;;;12.72
37452;BMP280;23314;51.114;6.900;2023-03-24T06:17:29;99908.75;;;12.64
37452;BMP280;23314;51.114;6.900;2023-03-24T06:19:55;99912.16;;;12.65
37452;BMP280;23314;51.114;6.900;2023-03-24T06:22:31;99919.34;;;12.68
37452;BMP280;23314;51.114;6.900;2023-03-24T06:24:56;99923.78;;;12.71
37452;BMP280;23314;51.114;6.900;2023-03-24T06:27:24;99914.28;;;12.70
37452;BMP280;23314;51.114;6.900;2023-03-24T06:29:53;99911.31;;;12.68
37452;BMP280;23314;51.114;6.900;2023-03-24T06:32:19;99920.19;;;12.65
37452;BMP280;23314;51.114;6.900;2023-03-24T06:34:45;99919.88;;;12.63
37452;BMP280;23314;51.114;6.900;2023-03-24T06:37:10;99928.03;;;12.59
37452;BMP280;23314;51.114;6.900;2023-03-24T06:39:36;99933.06;;;12.57
37452;BMP280;23314;51.114;6.900;2023-03-24T06:42:08;99927.88;;;12.53
37452;BMP280;23314;51.114;6.900;2023-03-24T06:44:48;99939.50;;;12.60
37452;BMP280;23314;51.114;6.900;2023-03-24T06:47:15;99946.38;;;12.70
37452;BMP280;23314;51.114;6.900;2023-03-24T06:49:41;99944.72;;;12.85
37452;BMP280;23314;51.114;6.900;2023-03-24T06:52:07;99949.22;;;12.98
37452;BMP280;23314;51.114;6.900;2023-03-24T06:54:33;99957.34;;;13.07
37452;BMP280;23314;51.114;6.900;2023-03-24T06:56:58;99971.63;;;13.13
37452;BMP280;23314;51.114;6.900;2023-03-24T06:59:23;99980.16;;;13.21
37452;BMP280;23314;51.114;6.900;2023-03-24T07:01:52;99982.56;;;13.28
37452;BMP280;23314;51.114;6.900;2023-03-24T07:04:19;99992.69;;;13.33
37452;BMP280;23314;51.114;6.900;2023-03-24T07:06:44;99993.75;;;13.36
37452;BMP280;23314;51.114;6.900;2023-03-24T07:09:10;99995.25;;;13.37
37452;BMP280;23314;51.114;6.900;2023-03-24T07:11:36;99981.88;;;13.37
37452;BMP280;23314;51.114;6.900;2023-03-24T07:14:02;99978.59;;;13.42
37452;BMP280;23314;51.114;6.900;2023-03-24T07:16:27;99972.06;;;13.43
37452;BMP280;23314;51.114;6.900;2023-03-24T07:18:52;99975.78;;;13.46
37452;BMP280;23314;51.114;6.900;2023-03-24T07:21:18;99973.41;;;13.48
37452;BMP280;23314;51.114;6.900;2023-03-24T07:23:44;99969.88;;;13.51
37452;BMP280;23314;51.114;6.900;2023-03-24T07:26:10;99988.63;;;13.51
37452;BMP280;23314;51.114;6.900;2023-03-24T07:28:35;99998.28;;;13.48
37452;BMP280;23314;51.114;6.900;2023-03-24T07:31:02;99996.63;;;13.42
37452;BMP280;23314;51.114;6.900;2023-03-24T07:33:28;99991.69;;;13.31
37452;BMP280;23314;51.114;6.900;2023-03-24T07:35:55;99996.53;;;13.23
37452;BMP280;23314;51.114;6.900;2023-03-24T07:38:21;99996.78;;;13.16
37452;BMP280;23314;51.114;6.900;2023-03-24T07:40:47;99997.38;;;13.11
37452;BMP280;23314;51.114;6.900;2023-03-24T07:43:12;100001.75;;;13.04
37452;BMP280;23314;51.114;6.900;2023-03-24T07:45:38;100005.59;;;12.94
37452;BMP280;23314;51.114;6.900;2023-03-24T07:48:03;100005.84;;;12.87
37452;BMP280;23314;51.114;6.900;2023-03-24T07:50:29;100009.50;;;12.80
37452;BMP280;23314;51.114;6.900;2023-03-24T07:52:55;100011.41;;;12.80
37452;BMP280;23314;51.114;6.900;2023-03-24T07:55:20;100011.75;;;12.82
37452;BMP280;23314;51.114;6.900;2023-03-24T07:57:47;100013.31;;;12.92
37452;BMP280;23314;51.114;6.900;2023-03-24T08:00:14;100007.59;;;13.12
37452;BMP280;23314;51.114;6.900;2023-03-24T08:02:43;100004.59;;;13.32
37452;BMP280;23314;51.114;6.900;2023-03-24T08:05:09;100013.91;;;13.50
37452;BMP280;23314;51.114;6.900;2023-03-24T08:07:35;100017.25;;;13.63
37452;BMP280;23314;51.114;6.900;2023-03-24T08:10:00;100018.94;;;13.79
37452;BMP280;23314;51.114;6.900;2023-03-24T08:12:26;100026.88;;;13.92
37452;BMP280;23314;51.114;6.900;2023-03-24T08:14:51;100031.63;;;13.97
37452;BMP280;23314;51.114;6.900;2023-03-24T08:17:17;100030.28;;;13.93
37452;BMP280;23314;51.114;6.900;2023-03-24T08:19:42;100035.63;;;13.93
37452;BMP280;23314;51.114;6.900;2023-03-24T08:22:07;100016.28;;;13.89
37452;BMP280;23314;51.114;6.900;2023-03-24T08:24:35;100026.72;;;13.96
37452;BMP280;23314;51.114;6.900;2023-03-24T08:27:00;100014.41;;;14.17
37452;BMP280;23314;51.114;6.900;2023-03-24T08:29:31;100022.44;;;14.54
37452;BMP280;23314;51.114;6.900;2023-03-24T08:31:59;100015.09;;;14.92
37452;BMP280;23314;51.114;6.900;2023-03-24T08:34:25;100022.28;;;15.38
37452;BMP280;23314;51.114;6.900;2023-03-24T08:36:50;100026.91;;;15.70
37452;BMP280;23314;51.114;6.900;2023-03-24T08:39:15;100019.94;;;15.64
37452;BMP280;23314;51.114;6.900;2023-03-24T08:41:41;100023.84;;;15.53
37452;BMP280;23314;51.114;6.900;2023-03-24T08:44:07;100028.56;;;15.68
37452;BMP280;23314;51.114;6.900;2023-03-24T08:46:33;100024.50;;;15.97
37452;BMP280;23314;51.114;6.900;2023-03-24T08:48:58;100041.84;;;16.20
37452;BMP280;23314;51.114;6.900;2023-03-24T08:53:51;100029.47;;;16.52
37452;BMP280;23314;51.114;6.900;2023-03-24T08:56:18;100039.28;;;16.56
37452;BMP280;23314;51.114;6.900;2023-03-24T08:58:44;100044.41;;;16.68
37452;BMP280;23314;51.114;6.900;2023-03-24T09:01:13;100046.81;;;16.66
37452;BMP280;23314;51.114;6.900;2023-03-24T09:03:38;100045.19;;;16.69
37452;BMP280;23314;51.114;6.900;2023-03-24T09:06:03;100043.56;;;16.77
37452;BMP280;23314;51.114;6.900;2023-03-24T09:08:30;100049.25;;;16.79
37452;BMP280;23314;51.114;6.900;2023-03-24T09:10:56;100044.88;;;16.82
37452;BMP280;23314;51.114;6.900;2023-03-24T09:13:21;100044.34;;;16.93
37452;BMP280;23314;51.114;6.900;2023-03-24T09:15:57;100053.59;;;17.07
37452;BMP280;23314;51.114;6.900;2023-03-24T09:18:23;100059.66;;;17.01
37452;BMP280;23314;51.114;6.900;2023-03-24T09:20:49;100056.19;;;17.16
37452;BMP280;23314;51.114;6.900;2023-03-24T09:23:15;100049.50;;;17.26
37452;BMP280;23314;51.114;6.900;2023-03-24T09:25:40;100061.19;;;17.38
37452;BMP280;23314;51.114;6.900;2023-03-24T09:28:05;100055.31;;;17.39
37452;BMP280;23314;51.114;6.900;2023-03-24T09:30:33;100065.91;;;17.43
37452;BMP280;23314;51.114;6.900;2023-03-24T09:32:58;100063.47;;;17.45
37452;BMP280;23314;51.114;6.900;2023-03-24T09:35:27;100052.34;;;17.37
37452;BMP280;23314;51.114;6.900;2023-03-24T09:37:54;100061.19;;;17.23
37452;BMP280;23314;51.114;6.900;2023-03-24T09:40:34;100062.72;;;16.94
37452;BMP280;23314;51.114;6.900;2023-03-24T09:43:06;100064.84;;;16.75
37452;BMP280;23314;51.114;6.900;2023-03-24T09:45:36;100068.38;;;16.66
37452;BMP280;23314;51.114;6.900;2023-03-24T09:48:04;100080.91;;;16.69
37452;BMP280;23314;51.114;6.900;2023-03-24T09:53:06;100083.97;;;16.92
37452;BMP280;23314;51.114;6.900;2023-03-24T09:55:36;100093.19;;;16.85
37452;BMP280;23314;51.114;6.900;2023-03-24T09:58:04;100083.16;;;16.86
37452;BMP280;23314;51.114;6.900;2023-03-24T10:00:33;100086.13;;;16.88
37452;BMP280;23314;51.114;6.900;2023-03-24T10:03:13;100090.41;;;16.95
37452;BMP280;23314;51.114;6.900;2023-03-24T10:05:44;100092.78;;;17.08
37452;BMP280;23314;51.114;6.900;2023-03-24T10:08:15;100088.34;;;17.19
37452;BMP280;23314;51.114;6.900;2023-03-24T10:10:57;100094.84;;;17.43
37452;BMP280;23314;51.114;6.900;2023-03-24T10:14:30;100093.72;;;17.70
37452;BMP280;23314;51.114;6.900;2023-03-24T10:19:39;100092.63;;;17.97
37452;BMP280;23314;51.114;6.900;2023-03-24T10:28:29;100101.03;;;18.05
37452;BMP280;23314;51.114;6.900;2023-03-24T10:31:02;100109.59;;;18.03
37452;BMP280;23314;51.114;6.900;2023-03-24T10:33:29;100103.75;;;18.05
37452;BMP280;23314;51.114;6.900;2023-03-24T10:35:59;100105.28;;;17.91
37452;BMP280;23314;51.114;6.900;2023-03-24T10:38:26;100109.53;;;17.77
37452;BMP280;23314;51.114;6.900;2023-03-24T10:40:53;100112.81;;;17.66
37452;BMP280;23314;51.114;6.900;2023-03-24T10:43:19;100107.47;;;17.36
37452;BMP280;23314;51.114;6.900;2023-03-24T10:45:48;100108.81;;;17.11
37452;BMP280;23314;51.114;6.900;2023-03-24T10:48:33;100108.97;;;16.93
37452;BMP280;23314;51.114;6.900;2023-03-24T10:50:59;100104.66;;;16.71
37452;BMP280;23314;51.114;6.900;2023-03-24T10:53:24;100112.22;;;16.67
37452;BMP280;23314;51.114;6.900;2023-03-24T10:55:50;100103.94;;;16.70
37452;BMP280;23314;51.114;6.900;2023-03-24T10:58:38;100105.81;;;16.79
37452;BMP280;23314;51.114;6.900;2023-03-24T11:01:23;100103.88;;;16.95
37452;BMP280;23314;51.114;6.900;2023-03-24T11:03:50;100108.06;;;17.11
37452;BMP280;23314;51.114;6.900;2023-03-24T11:06:19;100109.31;;;17.30
37452;BMP280;23314;51.114;6.900;2023-03-24T11:08:45;100100.31;;;17.33
37452;BMP280;23314;51.114;6.900;2023-03-24T11:13:55;100102.34;;;17.53
37452;BMP280;23314;51.114;6.900;2023-03-24T11:16:36;100100.13;;;17.52
37452;BMP280;23314;51.114;6.900;2023-03-24T11:19:05;100108.28;;;17.58
37452;BMP280;23314;51.114;6.900;2023-03-24T11:21:34;100106.22;;;17.67
37452;BMP280;23314;51.114;6.900;2023-03-24T11:24:02;100111.81;;;17.84
37452;BMP280;23314;51.114;6.900;2023-03-24T11:26:34;100113.06;;;17.83
37452;BMP280;23314;51.114;6.900;2023-03-24T11:29:05;100113.47;;;17.61
37452;BMP280;23314;51.114;6.900;2023-03-24T11:31:33;100123.25;;;17.59
37452;BMP280;23314;51.114;6.900;2023-03-24T11:34:12;100108.72;;;17.56
37452;BMP280;23314;51.114;6.900;2023-03-24T11:36:46;100118.22;;;17.51
37452;BMP280;23314;51.114;6.900;2023-03-24T11:44:24;100121.28;;;17.59
37452;BMP280;23314;51.114;6.900;2023-03-24T11:46:53;100125.75;;;17.62
37452;BMP280;23314;51.114;6.900;2023-03-24T11:49:21;100121.31;;;17.80
37452;BMP280;23314;51.114;6.900;2023-03-24T11:51:52;100118.03;;;17.90
37452;BMP280;23314;51.114;6.900;2023-03-24T11:54:20;100113.00;;;17.98
37452;BMP280;23314;51.114;6.900;2023-03-24T11:56:52;100123.97;;;17.95
37452;BMP280;23314;51.114;6.900;2023-03-24T12:02:12;100109.59;;;17.83
37452;BMP280;23314;51.114;6.900;2023-03-24T12:04:45;100096.59;;;17.81
37452;BMP280;23314;51.114;6.900;2023-03-24T12:12:55;100103.91;;;17.81
37452;BMP280;23314;51.114;6.900;2023-03-24T12:15:50;100091.31;;;17.93
37452;BMP280;23314;51.114;6.900;2023-03-24T12:23:59;100083.38;;;18.51
37452;BMP280;23314;51.114;6.900;2023-03-24T12:26:30;100080.38;;;18.69
37452;BMP280;23314;51.114;6.900;2023-03-24T12:31:57;100074.59;;;18.56
37452;BMP280;23314;51.114;6.900;2023-03-24T12:37:24;100065.69;;;18.76
37452;BMP280;23314;51.114;6.900;2023-03-24T12:43:17;100072.03;;;19.42
37452;BMP280;23314;51.114;6.900;2023-03-24T12:45:51;100067.38;;;19.49
37452;BMP280;23314;51.114;6.900;2023-03-24T12:48:44;100063.44;;;19.50
37452;BMP280;23314;51.114;6.900;2023-03-24T12:51:23;100059.56;;;19.56
37452;BMP280;23314;51.114;6.900;2023-03-24T12:56:29;100066.78;;;19.82
37452;BMP280;23314;51.114;6.900;2023-03-24T12:59:04;100061.16;;;19.86
37452;BMP280;23314;51.114;6.900;2023-03-24T13:04:32;100056.63;;;19.60
37452;BMP280;23314;51.114;6.900;2023-03-24T13:07:11;100059.75;;;19.41
37452;BMP280;23314;51.114;6.900;2023-03-24T13:10:02;100056.16;;;19.18
37452;BMP280;23314;51.114;6.900;2023-03-24T13:12:44;100052.59;;;19.01
37452;BMP280;23314;51.114;6.900;2023-03-24T13:15:23;100066.78;;;18.90
37452;BMP280;23314;51.114;6.900;2023-03-24T13:23:48;100062.47;;;18.46
37452;BMP280;23314;51.114;6.900;2023-03-24T13:31:13;100060.13;;;18.85
37452;BMP280;23314;51.114;6.900;2023-03-24T13:33:40;100063.81;;;18.88
37452;BMP280;23314;51.114;6.900;2023-03-24T13:38:48;100061.44;;;19.01
37452;BMP280;23314;51.114;6.900;2023-03-24T13:41:21;100051.97;;;19.17
37452;BMP280;23314;51.114;6.900;2023-03-24T13:44:00;100030.84;;;19.21
37452;BMP280;23314;51.114;6.900;2023-03-24T13:46:27;100044.94;;;18.94
37452;BMP280;23314;51.114;6.900;2023-03-24T13:48:54;100038.91;;;18.78
37452;BMP280;23314;51.114;6.900;2023-03-24T13:51:41;100042.06;;;18.71
37452;BMP280;23314;51.114;6.900;2023-03-24T13:54:19;100036.69;;;18.77
37452;BMP280;23314;51.114;6.900;2023-03-24T13:56:54;100032.75;;;18.78
37452;BMP280;23314;51.114;6.900;2023-03-24T14:02:17;100040.63;;;18.49
37452;BMP280;23314;51.114;6.900;2023-03-24T14:05:11;100035.75;;;18.48
37452;BMP280;23314;51.114;6.900;2023-03-24T14:15:49;100042.00;;;18.97
37452;BMP280;23314;51.114;6.900;2023-03-24T14:23:39;100027.41;;;18.83
37452;BMP280;23314;51.114;6.900;2023-03-24T14:26:10;100037.41;;;18.71
37452;BMP280;23314;51.114;6.900;2023-03-24T14:28:38;100039.84;;;18.69
37452;BMP280;23314;51.114;6.900;2023-03-24T14:36:27;100053.16;;;19.11
37452;BMP280;23314;51.114;6.900;2023-03-24T14:38:55;100055.16;;;19.16
37452;BMP280;23314;51.114;6.900;2023-03-24T14:41:29;100046.59;;;19.23
37452;BMP280;23314;51.114;6.900;2023-03-24T14:43:59;100050.22;;;19.14
37452;BMP280;23314;51.114;6.900;2023-03-24T14:46:34;100051.03;;;18.88
37452;BMP280;23314;51.114;6.900;2023-03-24T14:49:22;100044.75;;;18.71
37452;BMP280;23314;51.114;6.900;2023-03-24T14:57:18;100043.22;;;18.96
37452;BMP280;23314;51.114;6.900;2023-03-24T14:59:50;100031.44;;;18.99
37452;BMP280;23314;51.114;6.900;2023-03-24T15:02:44;100045.13;;;18.84
37452;BMP280;23314;51.114;6.900;2023-03-24T15:05:21;100042.09;;;18.77
37452;BMP280;23314;51.114;6.900;2023-03-24T15:08:16;100045.53;;;18.71
37452;BMP280;23314;51.114;6.900;2023-03-24T15:10:48;100040.81;;;18.66
37452;BMP280;23314;51.114;6.900;2023-03-24T15:13:31;100044.19;;;18.61
37452;BMP280;23314;51.114;6.900;2023-03-24T15:15:58;100042.41;;;18.52
37452;BMP280;23314;51.114;6.900;2023-03-24T15:18:24;100036.44;;;18.48
37452;BMP280;23314;51.114;6.900;2023-03-24T15:20:50;100034.19;;;18.41
37452;BMP280;23314;51.114;6.900;2023-03-24T15:23:18;100036.00;;;18.29
37452;BMP280;23314;51.114;6.900;2023-03-24T15:25:44;100025.19;;;18.23
37452;BMP280;23314;51.114;6.900;2023-03-24T15:28:20;100026.28;;;18.11
37452;BMP280;23314;51.114;6.900;2023-03-24T15:30:49;100018.28;;;17.96
37452;BMP280;23314;51.114;6.900;2023-03-24T15:33:16;100022.38;;;17.92
37452;BMP280;23314;51.114;6.900;2023-03-24T15:35:42;100021.59;;;17.85
37452;BMP280;23314;51.114;6.900;2023-03-24T15:38:17;100010.88;;;17.70
37452;BMP280;23314;51.114;6.900;2023-03-24T15:40:52;100010.72;;;17.59
37452;BMP280;23314;51.114;6.900;2023-03-24T15:43:20;100009.19;;;17.52
37452;BMP280;23314;51.114;6.900;2023-03-24T15:45:50;100014.75;;;17.49
37452;BMP280;23314;51.114;6.900;2023-03-24T15:48:19;100014.13;;;17.39
37452;BMP280;23314;51.114;6.900;2023-03-24T15:53:56;100077.03;;;17.00
37452;BMP280;23314;51.114;6.900;2023-03-24T15:56:27;100063.38;;;15.62
37452;BMP280;23314;51.114;6.900;2023-03-24T15:58:55;100053.59;;;14.61
37452;BMP280;23314;51.114;6.900;2023-03-24T16:01:25;100037.59;;;13.92
37452;BMP280;23314;51.114;6.900;2023-03-24T16:03:52;100075.66;;;13.46
37452;BMP280;23314;51.114;6.900;2023-03-24T16:06:27;100097.47;;;13.13
37452;BMP280;23314;51.114;6.900;2023-03-24T16:08:59;100050.66;;;12.74
37452;BMP280;23314;51.114;6.900;2023-03-24T16:11:25;100046.97;;;12.45
37452;BMP280;23314;51.114;6.900;2023-03-24T16:13:50;100060.47;;;12.29
37452;BMP280;23314;51.114;6.900;2023-03-24T16:16:26;100081.66;;;12.23
37452;BMP280;23314;51.114;6.900;2023-03-24T16:18:52;100098.03;;;12.12
37452;BMP280;23314;51.114;6.900;2023-03-24T16:21:19;100096.53;;;11.98
37452;BMP280;23314;51.114;6.900;2023-03-24T16:23:45;100111.72;;;11.88
37452;BMP280;23314;51.114;6.900;2023-03-24T16:26:16;100090.53;;;11.81
37452;BMP280;23314;51.114;6.900;2023-03-24T16:28:42;100100.47;;;11.81
37452;BMP280;23314;51.114;6.900;2023-03-24T16:31:16;100104.00;;;11.78
37452;BMP280;23314;51.114;6.900;2023-03-24T16:33:42;100100.16;;;11.66
37452;BMP280;23314;51.114;6.900;2023-03-24T16:36:09;100102.25;;;11.58
37452;BMP280;23314;51.114;6.900;2023-03-24T16:38:35;100103.94;;;11.52
37452;BMP280;23314;51.114;6.900;2023-03-24T16:41:01;100117.38;;;11.48